Pagrindinis puslapis
METAR-TAF:

METAR-TAF

Oro uostai :

Hévíz, Vengrija

platuma: 46-41-11N, ilguma: 017-09-33E, Aukštis: 124 m

Dabartinis oras

Ataskaita buvo paskelbta 36 minutes, ne 10:15 UTC
Vėjas 6 kt iš Pietų, svyruoja nuo Pietryčių ir Vakarų/Pietvakarių
Temperatūra 18°C
Drėgmė 39%
Slėgis 1027 hPa
Matomumas 10 km arba daugiau
nėra debesų žemiau 1500 m ir nėra kamuolinių lietaus debesų

METAR: LHSM 211015Z AUTO 19006KT 140V240 CAVOK 18/04 Q1027 NOSIG

Laikas: 12:51 (10:51 UTC)

Prognozė

Ataskaita buvo paskelbta 2 valandos ir 36 minutes, ne 08:15 UTC
Prognozė galioja nuo 21 metu 09 UTC su 21 metu 18 UTC
Vėjas 2 kt nuo kintamojo kryptimis
Matomumas 10 km arba daugiau
nėra debesų žemiau 1500 m ir nėra kamuolinių lietaus debesų
Tapsmas
nuo 21 metu 10 UTC su 21 metu 13 UTC
Vėjas 6 kt iš Pietų
Tapsmas
nuo 21 metu 15 UTC su 21 metu 18 UTC
Vėjas 2 kt nuo kintamojo kryptimis

TAF: LHSM 210815Z 2109/2118 VRB02KT CAVOK BECMG 2110/2113 19006KT BECMG 2115/2118 VRB02KT

Orai ataskaitas ir orų prognozės (METAR, TAF).

turimą stotys yra geltonos ir raudonos taškus žemėlapyje.

Perkelti pele per norėdami pamatyti stoties vardą.

Tada spustelėkite, norėdami matyti oro stebėjimo ir prognozės.

Norėdami pakeisti žemėlapį: spustelėkite ant žalios mygtukų su juodo kryžiaus žemyn,; žalią mygtuką su brūkšneliu, jei norite nutolinti; arba žalių rodyklių gretimoms žemėlapius.


METAR-TAF: